LTAY/DNZ METAR and TAF weather

Enter ICAO airport designator
Station Type Date Time Source
LTAY METAR 2019/06/26 16:30 UTC NOAA

LTAY 261630Z 29012KT 9999 -TSRA FEW025CB BKN035 30/17 Q1014 RETS


Station Type Date Time Source
LTAY Decoded METAR 2019/06/26 16:30 UTC NOAA

Cardak, Turkey (LTAY) 37-47N 029-42E
Jun 26, 2019 - 12:30 PM EDT / 2019.06.26 1630 UTC
Wind: from the WNW (290 degrees) at 14 MPH (12 KT):0
Visibility: greater than 7 mile(s):0
Sky conditions: mostly cloudy
Weather: light rain with thunder; Cumulonimbus clouds observed
Temperature: 86 F (30 C)
Dew Point: 62 F (17 C)
Relative Humidity: 45%
Pressure (altimeter): 29.94 in. Hg (1014 hPa)
ob: LTAY 261630Z 29012KT 9999 -TSRA FEW025CB BKN035 30/17 Q1014 RETS
cycle: 16

Station Type Date Time Source
LTAY TAF UTC NOAA

Error!

Example: see airport list